Time;durP1;ratioP1;P1;durP2;ratioP2;P2;SDS_P1;SDS_P2;PMS_P1;PMS_P2;Temp;Humidity;BMP_temperature;BMP_pressure;BME280_temperature;BME280_humidity;BME280_pressure;Samples;Min_cycle;Max_cycle;Signal;HPM_P1;HPM_P2
2022/05/20 00:00:17;;;;;;;666.05;614.13;;;;;;;23.19;49.00;101320.00;685858;28;21289;-70
2022/05/20 00:00:38;;;;;;;661.17;609.20;;;;;;;23.19;49.39;101320.00;684546;28;46712;-70
2022/05/20 00:01:00;;;;;;;674.65;619.72;;;;;;;23.19;49.25;101319.19;685387;28;22423;-70
2022/05/20 00:01:21;;;;;;;665.75;613.53;;;;;;;23.17;49.57;101321.38;684660;28;46306;-69
2022/05/20 00:01:43;;;;;;;668.67;616.22;;;;;;;23.14;49.50;101317.16;684446;28;45122;-69
2022/05/20 00:02:04;;;;;;;668.13;613.45;;;;;;;23.12;49.44;101312.97;685833;28;21549;-69
2022/05/20 00:02:26;;;;;;;667.33;612.40;;;;;;;23.15;49.38;101321.63;685551;28;21626;-69
2022/05/20 00:02:47;;;;;;;667.08;612.70;;;;;;;23.14;49.57;101316.34;684205;28;46183;-69
2022/05/20 00:03:08;;;;;;;662.30;605.33;;;;;;;23.16;49.30;101316.94;685132;28;22367;-70
2022/05/20 00:03:31;;;;;;;656.22;598.30;;;;;;;23.12;49.70;101312.97;685304;28;23444;-69
2022/05/20 00:03:53;;;;;;;668.30;611.33;;;;;;;23.16;49.45;101320.50;684020;28;69404;-69
2022/05/20 00:04:14;;;;;;;665.83;612.05;;;;;;;23.16;49.29;101314.19;684297;28;46358;-69
2022/05/20 00:04:35;;;;;;;648.28;597.63;;;;;;;23.16;49.59;101320.50;685692;28;21503;-70
2022/05/20 00:04:56;;;;;;;652.83;600.75;;;;;;;23.14;49.50;101314.41;685614;28;22382;-70
2022/05/20 00:05:17;;;;;;;667.58;611.72;;;;;;;23.08;49.48;101303.53;685454;28;21443;-70
2022/05/20 00:05:40;;;;;;;660.72;605.08;;;;;;;23.11;49.43;101314.91;684810;28;46393;-70
2022/05/20 00:06:01;;;;;;;665.35;609.47;;;;;;;23.12;49.83;101316.59;684872;28;44394;-70
2022/05/20 00:06:22;;;;;;;665.08;609.30;;;;;;;23.12;49.77;101313.84;685635;28;21490;-70
2022/05/20 00:06:43;;;;;;;660.17;604.20;;;;;;;23.11;49.55;101311.34;684996;28;21237;-70
2022/05/20 00:07:06;;;;;;;653.55;600.53;;;;;;;23.13;49.59;101322.94;685839;28;21554;-70
2022/05/20 00:07:27;;;;;;;658.10;606.30;;;;;;;23.12;49.48;101319.34;683788;28;67233;-70
2022/05/20 00:07:48;;;;;;;658.22;603.20;;;;;;;23.12;49.50;101316.59;685527;28;21544;-70
2022/05/20 00:08:09;;;;;;;659.22;605.25;;;;;;;23.10;49.54;101318.75;685725;28;22240;-70
2022/05/20 00:08:32;;;;;;;666.03;612.55;;;;;;;23.11;49.53;101325.94;684992;28;22271;-70
2022/05/20 00:08:53;;;;;;;660.10;607.03;;;;;;;23.07;49.55;101313.69;684849;28;45027;-69
2022/05/20 00:09:14;;;;;;;661.67;607.03;;;;;;;23.12;49.69;101321.25;684536;28;22400;-69
2022/05/20 00:09:35;;;;;;;665.55;611.50;;;;;;;23.11;49.39;101316.84;685212;28;23647;-69
2022/05/20 00:09:57;;;;;;;660.70;605.67;;;;;;;23.12;49.65;101324.00;684499;28;46531;-69
2022/05/20 00:10:19;;;;;;;659.88;604.20;;;;;;;23.13;49.87;101322.94;683880;28;44274;-69
2022/05/20 00:10:40;;;;;;;654.25;600.72;;;;;;;23.12;49.66;101330.38;685508;28;23391;-69
2022/05/20 00:11:01;;;;;;;650.35;600.38;;;;;;;23.12;49.67;101327.63;685215;28;22422;-69
2022/05/20 00:11:25;;;;;;;656.60;603.40;;;;;;;23.12;49.50;101319.34;685687;28;22124;-69
2022/05/20 00:11:46;;;;;;;665.40;609.20;;;;;;;23.11;49.68;101323.19;682368;28;92248;-69
2022/05/20 00:12:08;;;;;;;668.05;611.45;;;;;;;23.12;49.68;101324.00;685838;28;22390;-70
2022/05/20 00:12:29;;;;;;;664.55;606.92;;;;;;;23.09;49.54;101328.09;683907;28;45082;-70
2022/05/20 00:12:52;;;;;;;665.45;607.60;;;;;;;23.12;49.65;101333.13;685671;28;23244;-70
2022/05/20 00:13:13;;;;;;;666.20;608.50;;;;;;;23.12;49.57;101333.13;683777;28;67505;-70
2022/05/20 00:13:34;;;;;;;669.08;611.22;;;;;;;23.09;49.67;101327.25;685856;28;23414;-69
2022/05/20 00:13:55;;;;;;;667.20;609.40;;;;;;;23.14;49.58;101330.94;685655;28;21226;-70
2022/05/20 00:14:17;;;;;;;664.70;607.83;;;;;;;23.15;49.77;101331.78;685784;28;22397;-70
2022/05/20 00:14:38;;;;;;;663.70;606.72;;;;;;;23.16;49.45;101334.28;685978;28;6984;-70
2022/05/20 00:14:59;;;;;;;669.33;611.42;;;;;;;23.11;49.35;101331.44;685841;28;22533;-70
2022/05/20 00:15:24;;;;;;;671.28;613.25;;;;;;;23.16;49.60;101336.22;685178;28;23103;-70
2022/05/20 00:15:47;;;;;;;668.03;611.22;;;;;;;23.12;49.26;101324.00;682077;28;114549;-70
2022/05/20 00:16:08;;;;;;;666.45;609.40;;;;;;;23.21;49.16;101331.66;685010;28;45225;-70
2022/05/20 00:16:29;;;;;;;667.50;609.90;;;;;;;23.21;49.52;101339.06;684520;28;23485;-70
2022/05/20 00:16:50;;;;;;;666.42;608.80;;;;;;;23.19;49.54;101335.72;685836;28;23219;-70
2022/05/20 00:17:12;;;;;;;662.45;606.85;;;;;;;23.16;49.35;101330.69;684344;28;43362;-70
2022/05/20 00:17:33;;;;;;;669.50;612.92;;;;;;;23.19;49.64;101338.47;684397;28;48084;-70
2022/05/20 00:17:55;;;;;;;668.38;611.45;;;;;;;23.17;49.33;101333.22;682467;28;22314;-70
2022/05/20 00:18:16;;;;;;;667.22;610.05;;;;;;;23.12;49.26;101335.88;682951;28;22397;-70
2022/05/20 00:18:38;;;;;;;665.92;608.47;;;;;;;23.12;49.37;101332.28;682106;28;46284;-70
2022/05/20 00:18:59;;;;;;;665.58;607.70;;;;;;;23.14;49.74;101335.63;682461;28;46286;-69
2022/05/20 00:19:21;;;;;;;665.50;607.95;;;;;;;23.12;49.53;101338.63;685969;28;22307;-70
2022/05/20 00:19:42;;;;;;;662.75;605.85;;;;;;;23.11;49.54;101322.34;683599;28;23398;-70
2022/05/20 00:20:05;;;;;;;666.72;610.40;;;;;;;23.12;49.44;101332.28;687726;28;22724;-69
2022/05/20 00:20:28;;;;;;;665.95;608.97;;;;;;;23.13;49.69;101331.19;686194;28;65604;-70
2022/05/20 00:20:49;;;;;;;663.45;609.38;;;;;;;23.12;49.61;101338.63;685920;28;69430;-70
2022/05/20 00:21:11;;;;;;;664.53;607.75;;;;;;;23.09;49.56;101325.34;687938;28;22433;-69
2022/05/20 00:21:32;;;;;;;662.70;604.97;;;;;;;23.10;49.63;101328.94;686557;28;46377;-70
2022/05/20 00:21:54;;;;;;;655.05;597.95;;;;;;;23.15;49.63;101340.91;686178;28;44426;-69
2022/05/20 00:22:15;;;;;;;652.00;596.60;;;;;;;23.14;49.82;101339.22;686003;28;22385;-70
2022/05/20 00:22:36;;;;;;;650.60;593.58;;;;;;;23.11;49.91;101331.44;685595;28;23517;-69
2022/05/20 00:22:58;;;;;;;510.92;458.45;;;;;;;23.13;49.68;101340.28;684960;28;22323;-70
2022/05/20 00:23:19;;;;;;;459.80;397.77;;;;;;;23.09;49.79;101336.38;683655;28;45240;-70
2022/05/20 00:23:40;;;;;;;461.02;397.67;;;;;;;23.10;49.72;101331.69;685708;28;22388;-70
2022/05/20 00:24:02;;;;;;;459.35;399.52;;;;;;;23.13;49.73;101336.72;685873;28;22391;-69
2022/05/20 00:24:24;;;;;;;454.63;388.05;;;;;;;23.10;49.62;101340.78;684301;28;44386;-69
2022/05/20 00:26:05;;;;;;;459.42;388.10;;;;;;;23.10;49.80;101340.78;680923;28;136021;-70
2022/05/20 00:26:28;;;;;;;457.35;385.55;;;;;;;23.10;49.70;101342.72;683502;28;23467;-69
2022/05/20 00:26:50;;;;;;;461.35;394.33;;;;;;;23.11;49.96;101336.94;683186;28;69481;-70
2022/05/20 00:27:11;;;;;;;458.15;392.17;;;;;;;23.12;49.76;101337.78;684284;28;45264;-69
2022/05/20 00:27:32;;;;;;;455.50;382.02;;;;;;;23.03;49.50;101331.81;684988;28;22452;-69
2022/05/20 00:27:53;;;;;;;456.27;379.83;;;;;;;23.11;49.84;101336.13;685010;28;21647;-69
2022/05/20 00:28:19;;;;;;;455.10;377.05;;;;;;;23.07;49.87;101332.16;684283;28;45122;-69
2022/05/20 00:28:43;;;;;;;454.77;380.30;;;;;;;23.08;49.72;101342.09;681692;28;138312;-69
2022/05/20 00:29:04;;;;;;;454.48;379.02;;;;;;;23.06;49.86;101331.31;683236;28;91937;-69
2022/05/20 00:29:25;;;;;;;452.85;370.73;;;;;;;23.07;49.91;101343.16;685425;28;23480;-69
2022/05/20 00:29:46;;;;;;;455.90;375.73;;;;;;;23.08;49.64;101339.34;685244;28;22241;-70
2022/05/20 00:30:08;;;;;;;455.52;379.33;;;;;;;23.02;50.00;101333.75;685610;28;23858;-69
2022/05/20 00:30:31;;;;;;;454.98;379.42;;;;;;;23.03;50.17;101335.41;684470;28;44369;-69
2022/05/20 00:30:54;;;;;;;455.65;375.98;;;;;;;23.03;49.94;101340.91;683683;28;68937;-69
2022/05/20 00:31:16;;;;;;;479.83;427.50;;;;;;;23.01;50.09;101334.00;683546;28;69349;-69
2022/05/20 00:31:38;;;;;;;456.38;379.15;;;;;;;23.02;49.81;101342.00;685906;28;46955;-69
2022/05/20 00:31:59;;;;;;;449.88;360.50;;;;;;;23.04;50.19;101345.34;687409;28;44388;-70
2022/05/20 00:32:20;;;;;;;448.05;356.40;;;;;;;23.04;50.09;101339.84;688102;28;22469;-69
2022/05/20 00:32:42;;;;;;;450.55;355.35;;;;;;;23.06;49.84;101349.75;683583;28;47903;-70
2022/05/20 00:33:03;;;;;;;447.17;353.38;;;;;;;23.09;49.90;101346.53;685052;28;22233;-70
2022/05/20 00:33:28;;;;;;;447.50;348.35;;;;;;;23.07;50.06;101343.16;685324;28;1819;-69
2022/05/20 00:33:49;;;;;;;446.42;355.75;;;;;;;23.00;50.17;101341.41;682991;28;92138;-69
2022/05/20 00:34:10;;;;;;;450.92;365.45;;;;;;;23.08;49.89;101339.34;685692;28;22282;-69
2022/05/20 00:34:31;;;;;;;452.52;371.60;;;;;;;23.09;50.00;101347.41;685563;28;22469;-70
2022/05/20 00:34:52;;;;;;;459.10;393.35;;;;;;;23.06;50.06;101342.34;685861;28;22421;-69
2022/05/20 00:35:16;;;;;;;454.73;378.40;;;;;;;23.08;50.22;101348.47;684856;28;46287;-70
2022/05/20 00:35:37;;;;;;;451.65;369.08;;;;;;;23.02;50.03;101339.25;683593;28;71420;-69
2022/05/20 00:35:58;;;;;;;454.42;375.95;;;;;;;23.03;50.28;101346.41;685698;28;22381;-70
2022/05/20 00:36:20;;;;;;;449.38;362.35;;;;;;;23.01;50.01;101343.06;685497;28;23791;-69
2022/05/20 00:36:41;;;;;;;445.47;349.50;;;;;;;23.02;50.17;101342.00;683338;28;69519;-69
2022/05/20 00:37:03;;;;;;;450.13;364.48;;;;;;;23.03;49.91;101342.84;685066;28;45740;-69
2022/05/20 00:37:24;;;;;;;448.45;354.58;;;;;;;23.03;49.92;101334.56;685284;28;21530;-69
2022/05/20 00:37:46;;;;;;;446.60;351.40;;;;;;;23.07;49.80;101344.00;685913;28;22333;-70
2022/05/20 00:38:07;;;;;;;449.13;360.25;;;;;;;23.04;49.93;101347.28;684596;28;45292;-69
2022/05/20 00:38:28;;;;;;;447.73;356.13;;;;;;;23.09;49.96;101344.63;685771;28;23480;-69
2022/05/20 00:38:51;;;;;;;455.58;380.65;;;;;;;23.09;49.98;101350.16;685674;28;21376;-70
2022/05/20 00:39:12;;;;;;;453.52;368.75;;;;;;;23.10;49.99;101350.97;684189;28;67481;-69
2022/05/20 00:39:33;;;;;;;513.72;460.08;;;;;;;23.08;50.13;101342.09;685264;28;21122;-70
2022/05/20 00:39:54;;;;;;;624.75;567.40;;;;;;;23.08;50.13;101348.47;685223;28;23479;-69
2022/05/20 00:40:19;;;;;;;627.15;570.05;;;;;;;23.07;50.05;101344.00;685323;28;22399;-70
2022/05/20 00:40:40;;;;;;;602.92;546.58;;;;;;;23.08;50.18;101345.72;682591;28;113572;-69
2022/05/20 00:41:01;;;;;;;524.47;470.92;;;;;;;23.10;50.16;101346.28;685875;28;22377;-69
2022/05/20 00:41:22;;;;;;;458.70;396.27;;;;;;;23.09;50.26;101341.88;685717;28;22443;-69
2022/05/20 00:41:46;;;;;;;447.35;359.23;;;;;;;23.08;50.43;101345.72;685116;28;22376;-70
2022/05/20 00:42:13;;;;;;;458.10;390.08;;;;;;;23.10;50.03;101343.53;683152;28;92038;-70
2022/05/20 00:42:34;;;;;;;460.30;393.05;;;;;;;23.09;49.97;101341.88;681492;28;138035;-70
2022/05/20 00:43:09;;;;;;;508.15;454.75;;;;;;;23.08;50.06;101340.19;684825;28;21506;-70
2022/05/20 00:43:36;;;;;;;595.80;539.53;;;;;;;23.07;50.29;101344.00;679960;28;158386;-70
2022/05/20 00:43:58;;;;;;;460.08;385.73;;;;;;;23.07;50.30;101344.00;680233;28;137914;-69
2022/05/20 00:44:19;;;;;;;456.48;379.85;;;;;;;23.09;50.18;101352.91;684130;28;44410;-70
2022/05/20 00:44:40;;;;;;;458.58;378.95;;;;;;;23.09;50.12;101350.16;685434;28;23466;-70
2022/05/20 00:45:03;;;;;;;455.25;378.23;;;;;;;23.09;50.28;101343.78;685566;28;23624;-70
2022/05/20 00:45:24;;;;;;;460.83;386.55;;;;;;;23.10;50.43;101348.22;683308;28;69411;-70
2022/05/20 00:45:45;;;;;;;460.05;379.80;;;;;;;23.10;50.06;101350.97;685615;28;23724;-70
2022/05/20 00:46:08;;;;;;;461.60;393.85;;;;;;;23.09;50.15;101346.53;685330;28;23543;-70
2022/05/20 00:46:30;;;;;;;458.35;382.95;;;;;;;23.10;50.21;101350.97;683353;28;67505;-70
2022/05/20 00:46:51;;;;;;;456.98;376.88;;;;;;;23.09;50.39;101352.91;684372;28;46165;-70
2022/05/20 00:47:13;;;;;;;456.08;378.83;;;;;;;23.06;50.10;101344.25;685194;28;22200;-70
2022/05/20 00:47:35;;;;;;;455.95;377.77;;;;;;;23.09;50.39;101349.28;684894;28;45218;-70
2022/05/20 00:47:56;;;;;;;455.50;377.33;;;;;;;23.09;50.35;101355.66;685662;28;22284;-70
2022/05/20 00:48:18;;;;;;;455.92;379.80;;;;;;;23.03;50.39;101343.66;687236;28;46047;-70
2022/05/20 00:48:40;;;;;;;455.52;378.95;;;;;;;23.07;50.52;101344.00;687784;28;37089;-70
2022/05/20 00:49:03;;;;;;;456.60;383.15;;;;;;;23.08;50.21;101347.59;687788;28;22468;-70
2022/05/20 00:49:25;;;;;;;456.33;379.27;;;;;;;23.12;50.17;101357.94;686865;28;64920;-70
2022/05/20 00:49:50;;;;;;;458.88;385.23;;;;;;;23.10;50.06;101349.03;687053;28;46333;-70
2022/05/20 00:50:15;;;;;;;455.95;378.13;;;;;;;23.12;50.14;101344.16;683823;28;115290;-70
2022/05/20 00:50:39;;;;;;;457.02;384.35;;;;;;;23.14;50.67;101353.00;683543;28;91449;-70
2022/05/20 00:51:04;;;;;;;462.45;394.98;;;;;;;23.14;50.34;101353.00;681735;28;115102;-70
2022/05/20 00:51:28;;;;;;;461.63;395.02;;;;;;;23.15;50.27;101351.91;682387;28;115120;-70
2022/05/20 00:51:52;;;;;;;457.45;382.60;;;;;;;23.13;50.27;101356.81;681806;28;111808;-70
2022/05/20 00:52:15;;;;;;;456.92;383.42;;;;;;;23.11;50.01;101349.91;683064;28;89369;-70
2022/05/20 00:52:39;;;;;;;456.60;378.05;;;;;;;23.13;50.14;101356.81;683710;28;67630;-70
2022/05/20 00:53:01;;;;;;;459.38;388.33;;;;;;;23.12;50.39;101363.44;683403;28;84458;-70
2022/05/20 00:53:24;;;;;;;459.58;389.40;;;;;;;23.11;50.76;101352.66;684474;28;46198;-70
2022/05/20 00:53:48;;;;;;;452.20;361.33;;;;;;;23.11;50.57;101352.66;683871;28;67284;-70
2022/05/20 00:54:13;;;;;;;454.45;368.73;;;;;;;23.03;50.40;101348.34;684234;28;92319;-70
2022/05/20 00:54:37;;;;;;;462.33;394.02;;;;;;;23.09;50.64;101352.03;683928;28;93031;-69
2022/05/20 00:55:00;;;;;;;462.88;399.33;;;;;;;23.07;50.53;101354.19;682408;28;115918;-69
2022/05/20 00:55:23;;;;;;;461.65;396.80;;;;;;;23.07;50.56;101338.47;685445;28;13838;-69
2022/05/20 00:55:46;;;;;;;456.67;376.83;;;;;;;23.07;50.25;101351.44;684768;28;45284;-69
2022/05/20 00:56:09;;;;;;;454.20;370.67;;;;;;;23.07;50.61;101359.69;685969;28;68156;-69
2022/05/20 00:56:32;;;;;;;454.65;367.10;;;;;;;23.08;50.43;101353.13;679687;28;69044;-69
2022/05/20 00:57:20;;;;;;;476.88;409.60;;;;;;;23.01;50.79;101342.25;678470;28;1944;-66
2022/05/20 00:57:44;;;;;;;486.13;433.25;;;;;;;23.07;50.77;101355.00;681078;28;115441;-64
2022/05/20 00:58:08;;;;;;;453.58;378.13;;;;;;;23.06;50.53;101349.75;680061;28;93025;-66
2022/05/20 00:58:29;;;;;;;452.75;370.45;;;;;;;23.04;51.08;101356.38;679479;28;90795;-67
2022/05/20 00:58:52;;;;;;;452.95;369.73;;;;;;;23.06;51.05;101358.00;684322;28;22074;-66
2022/05/20 00:59:16;;;;;;;454.17;374.95;;;;;;;23.04;51.06;101352.78;682215;28;69580;-63
2022/05/20 00:59:39;;;;;;;484.73;432.10;;;;;;;23.03;50.61;101357.44;681310;28;90399;-66
2022/05/20 01:00:05;;;;;;;552.53;498.00;;;;;;;23.04;50.65;101358.28;682327;28;69862;-65
2022/05/20 01:00:29;;;;;;;458.85;393.35;;;;;;;23.02;50.91;101355.78;680758;28;115270;-64
2022/05/20 01:00:53;;;;;;;457.25;388.40;;;;;;;23.04;50.71;101361.88;678722;28;92173;-65
2022/05/20 01:01:14;;;;;;;454.52;380.20;;;;;;;23.07;50.92;101359.69;679367;28;90467;-65
2022/05/20 01:01:36;;;;;;;453.23;369.58;;;;;;;23.07;50.79;101351.44;680125;28;44368;-65
2022/05/20 01:02:03;;;;;;;453.27;369.52;;;;;;;23.09;50.65;101366.69;680679;28;44281;-63
2022/05/20 01:02:25;;;;;;;456.38;381.05;;;;;;;23.08;50.76;101364.13;676950;28;137709;-65
2022/05/20 01:02:48;;;;;;;462.35;401.80;;;;;;;23.04;50.84;101350.84;680749;29;44984;-65
2022/05/20 01:03:12;;;;;;;454.15;376.17;;;;;;;23.03;50.91;101360.19;680924;28;46194;-65
2022/05/20 01:03:36;;;;;;;459.65;393.10;;;;;;;23.02;50.67;101364.03;678492;29;113244;-65
2022/05/20 01:03:57;;;;;;;462.33;404.38;;;;;;;23.00;50.88;101360.69;684486;28;69479;-65
2022/05/20 01:04:19;;;;;;;456.90;384.65;;;;;;;23.01;51.09;101364.28;685771;28;45239;-65
2022/05/20 01:04:42;;;;;;;463.05;404.08;;;;;;;23.01;50.98;101362.38;685931;28;44392;-64
2022/05/20 01:05:07;;;;;;;455.85;382.65;;;;;;;22.98;51.11;101362.03;686331;28;45258;-65
2022/05/20 01:05:30;;;;;;;454.65;377.40;;;;;;;22.96;51.12;101358.66;682669;28;138194;-64
2022/05/20 01:05:53;;;;;;;461.40;397.98;;;;;;;22.95;51.43;101365.28;680960;28;90597;-64
2022/05/20 01:06:15;;;;;;;460.58;395.65;;;;;;;22.93;51.22;101362.75;681351;28;45258;-64
2022/05/20 01:06:36;;;;;;;512.17;459.02;;;;;;;22.93;51.21;101360.00;680366;28;46400;-64
2022/05/20 01:06:57;;;;;;;499.83;447.00;;;;;;;22.94;51.08;101366.34;681679;28;21517;-64
2022/05/20 01:07:18;;;;;;;462.17;401.52;;;;;;;22.93;51.27;101371.03;680589;28;46294;-64
2022/05/20 01:07:39;;;;;;;465.45;408.70;;;;;;;22.92;51.42;101368.50;681860;28;22381;-65
2022/05/20 01:08:02;;;;;;;462.02;400.17;;;;;;;22.91;51.52;101369.56;684125;28;9943;-64
2022/05/20 01:08:26;;;;;;;455.33;377.67;;;;;;;22.91;51.26;101375.91;683164;28;46374;-64
2022/05/20 01:08:47;;;;;;;451.40;367.10;;;;;;;22.92;51.36;101369.34;680989;28;115047;-63
2022/05/20 01:09:09;;;;;;;451.08;364.25;;;;;;;22.91;51.36;101367.66;683579;28;23559;-64
2022/05/20 01:09:30;;;;;;;454.20;370.05;;;;;;;22.90;51.50;101368.75;682740;28;46730;-64
2022/05/20 01:09:51;;;;;;;459.60;384.73;;;;;;;22.91;51.37;101377.84;683236;28;21513;-64
2022/05/20 01:10:13;;;;;;;456.92;380.58;;;;;;;22.88;51.64;101376.41;681309;29;22414;-64
2022/05/20 01:10:34;;;;;;;453.65;372.23;;;;;;;22.86;51.22;101373.06;681221;29;23458;-64
2022/05/20 01:10:56;;;;;;;452.70;371.65;;;;;;;22.85;51.69;101371.38;682373;29;930;-65
2022/05/20 01:11:17;;;;;;;453.48;372.67;;;;;;;22.84;51.66;101372.47;679859;28;68436;-65
2022/05/20 01:11:39;;;;;;;453.60;371.88;;;;;;;22.83;51.58;101374.38;680920;28;22396;-65
2022/05/20 01:12:00;;;;;;;453.77;372.35;;;;;;;22.83;51.59;101374.38;680598;28;46288;-65
2022/05/20 01:12:25;;;;;;;483.05;430.75;;;;;;;22.83;51.82;101376.31;681396;28;22490;-64
2022/05/20 01:12:48;;;;;;;457.85;389.00;;;;;;;22.81;51.83;101371.03;679148;29;92060;-65
2022/05/20 01:13:10;;;;;;;463.42;405.80;;;;;;;22.81;51.84;101376.56;679914;29;65463;-64
2022/05/20 01:13:32;;;;;;;463.20;399.33;;;;;;;22.83;51.74;101376.31;680638;29;46269;-64
2022/05/20 01:13:54;;;;;;;462.90;403.98;;;;;;;22.82;51.79;101371.88;681733;29;22398;-64
2022/05/20 01:14:18;;;;;;;466.30;413.58;;;;;;;22.79;51.79;101372.34;680344;28;45202;-64
2022/05/20 01:14:40;;;;;;;469.70;417.90;;;;;;;22.79;51.96;101373.22;678490;29;115228;-64
2022/05/20 01:15:02;;;;;;;466.00;414.30;;;;;;;22.77;51.76;101369.00;681475;29;23456;-64
2022/05/20 01:15:24;;;;;;;464.77;408.70;;;;;;;22.77;51.99;101374.53;679774;29;67459;-64
2022/05/20 01:15:46;;;;;;;464.00;404.75;;;;;;;22.77;51.86;101367.09;680122;28;46441;-64
2022/05/20 01:16:11;;;;;;;463.58;403.10;;;;;;;22.77;51.90;101364.34;680799;28;45214;-64
2022/05/20 01:16:32;;;;;;;465.02;408.65;;;;;;;22.78;51.73;101365.19;677553;28;115125;-64
2022/05/20 01:16:53;;;;;;;462.88;403.20;;;;;;;22.79;51.93;101369.59;680928;28;46269;-64
2022/05/20 01:17:16;;;;;;;535.53;481.73;;;;;;;22.78;52.19;101374.28;681309;28;21700;-65
2022/05/20 01:17:37;;;;;;;498.48;445.85;;;;;;;22.78;51.86;101367.94;680724;28;46239;-64
2022/05/20 01:17:58;;;;;;;456.17;383.13;;;;;;;22.79;51.87;101373.22;680826;28;46318;-65
2022/05/20 01:18:20;;;;;;;456.73;380.02;;;;;;;22.78;51.96;101374.28;681046;29;22373;-64
2022/05/20 01:18:45;;;;;;;456.73;379.10;;;;;;;22.79;51.82;101370.47;681358;28;22403;-64
2022/05/20 01:19:07;;;;;;;457.38;386.25;;;;;;;22.79;51.87;101375.09;677981;28;114686;-64
2022/05/20 01:19:35;;;;;;;456.52;383.38;;;;;;;22.77;51.95;101372.59;679887;29;45224;-64
2022/05/20 01:19:57;;;;;;;477.17;424.88;;;;;;;22.79;51.97;101375.09;677301;28;159205;-65
2022/05/20 01:20:22;;;;;;;456.38;383.08;;;;;;;22.79;51.69;101378.72;680810;28;45394;-64
2022/05/20 01:20:45;;;;;;;456.95;383.85;;;;;;;22.79;51.90;101377.84;678285;28;113299;-64
2022/05/20 01:21:07;;;;;;;457.10;385.60;;;;;;;22.78;51.76;101382.53;679235;28;92285;-64
2022/05/20 01:21:29;;;;;;;466.85;414.95;;;;;;;22.78;51.90;101379.78;680337;28;23480;-65
2022/05/20 01:21:50;;;;;;;484.35;431.95;;;;;;;22.78;51.97;101373.44;680228;29;46410;-64
2022/05/20 01:22:13;;;;;;;480.00;427.90;;;;;;;22.79;51.99;101380.63;681642;29;22209;-65
2022/05/20 01:22:37;;;;;;;479.17;427.02;;;;;;;22.79;51.74;101380.63;682502;28;67411;-64
2022/05/20 01:23:06;;;;;;;477.90;425.75;;;;;;;22.77;51.79;101380.84;681100;28;93072;-64
2022/05/20 01:23:28;;;;;;;467.05;415.30;;;;;;;22.75;52.25;101379.44;680189;28;136224;-63
2022/05/20 01:23:50;;;;;;;464.48;408.88;;;;;;;22.76;52.13;101376.44;683095;28;45385;-64
2022/05/20 01:24:12;;;;;;;463.52;405.67;;;;;;;22.77;52.04;101375.34;683200;28;46386;-65
2022/05/20 01:24:33;;;;;;;464.45;409.90;;;;;;;22.77;51.82;101369.84;681366;28;46359;-65
2022/05/20 01:24:54;;;;;;;458.13;389.92;;;;;;;22.77;51.83;101371.78;681747;28;23483;-64
2022/05/20 01:25:16;;;;;;;454.80;380.00;;;;;;;22.76;51.89;101373.69;681748;28;23550;-64
2022/05/20 01:25:40;;;;;;;455.05;381.90;;;;;;;22.74;51.95;101369.50;680561;28;46104;-65
2022/05/20 01:26:03;;;;;;;453.30;372.33;;;;;;;22.74;51.95;101364.00;679219;29;92277;-64
2022/05/20 01:26:24;;;;;;;452.50;370.98;;;;;;;22.75;51.97;101371.19;679486;28;69414;-64
2022/05/20 01:26:45;;;;;;;462.92;408.00;;;;;;;22.74;52.13;101373.09;680987;28;21513;-64
2022/05/20 01:27:06;;;;;;;458.35;389.83;;;;;;;22.74;52.26;101377.75;680933;28;22266;-65
2022/05/20 01:27:27;;;;;;;452.88;369.00;;;;;;;22.71;52.27;101370.84;681014;28;22402;-65
2022/05/20 01:27:49;;;;;;;460.23;396.02;;;;;;;22.72;52.02;101374.44;681585;28;23468;-64
2022/05/20 01:28:10;;;;;;;464.75;409.20;;;;;;;22.70;52.30;101373.84;680250;28;46382;-66
2022/05/20 01:28:33;;;;;;;454.67;378.50;;;;;;;22.68;52.65;101369.41;680669;28;44073;-63
2022/05/20 01:28:54;;;;;;;455.67;381.95;;;;;;;22.68;52.64;101380.41;680998;28;45244;-64
2022/05/20 01:29:16;;;;;;;454.35;379.17;;;;;;;22.67;52.20;101372.41;681760;28;23310;-66
2022/05/20 01:29:37;;;;;;;456.02;383.35;;;;;;;22.67;52.31;101375.16;679662;28;46293;-65
2022/05/20 01:29:58;;;;;;;455.48;377.52;;;;;;;22.66;52.50;101376.22;682117;29;994;-65
2022/05/20 01:30:22;;;;;;;451.92;371.25;;;;;;;22.67;52.38;101380.66;681321;28;21285;-65
2022/05/20 01:30:47;;;;;;;453.00;374.00;;;;;;;22.64;52.50;101376.47;679349;28;89626;-66
2022/05/20 01:31:12;;;;;;;456.17;381.92;;;;;;;22.64;52.34;101376.47;678423;29;115945;-65
2022/05/20 01:31:33;;;;;;;454.55;376.13;;;;;;;22.66;52.50;101378.97;677305;28;115164;-65
2022/05/20 01:31:54;;;;;;;457.30;383.90;;;;;;;22.65;52.52;101382.81;681666;29;23445;-66
2022/05/20 01:32:15;;;;;;;458.65;388.83;;;;;;;22.65;52.52;101383.66;681243;28;23467;-64
2022/05/20 01:32:36;;;;;;;455.35;377.83;;;;;;;22.65;52.31;101375.41;681407;29;23410;-64
2022/05/20 01:33:03;;;;;;;453.95;371.60;;;;;;;22.68;52.11;101385.09;681226;28;23346;-65
2022/05/20 01:33:27;;;;;;;456.88;382.83;;;;;;;22.68;52.25;101376.84;679302;28;86196;-64
2022/05/20 01:33:50;;;;;;;456.52;381.17;;;;;;;22.64;52.61;101376.47;679210;28;92359;-64
2022/05/20 01:34:11;;;;;;;453.20;370.80;;;;;;;22.66;52.18;101379.84;680062;29;69088;-65
2022/05/20 01:34:32;;;;;;;457.95;387.08;;;;;;;22.66;52.46;101384.47;681584;28;23296;-65
2022/05/20 01:34:53;;;;;;;458.67;385.60;;;;;;;22.66;52.60;101384.47;681202;28;22245;-65
2022/05/20 01:35:20;;;;;;;456.05;374.98;;;;;;;22.63;52.24;101383.06;680769;28;44438;-65
2022/05/20 01:35:43;;;;;;;454.80;375.77;;;;;;;22.63;52.44;101383.06;677581;28;137787;-65
2022/05/20 01:36:07;;;;;;;456.98;384.98;;;;;;;22.63;52.60;101384.97;680228;28;70187;-66
2022/05/20 01:36:29;;;;;;;456.30;377.63;;;;;;;22.63;52.62;101387.72;678075;28;92418;-65
2022/05/20 01:36:50;;;;;;;455.92;378.58;;;;;;;22.61;52.79;101387.13;682177;28;6973;-66
2022/05/20 01:37:13;;;;;;;457.08;378.10;;;;;;;22.61;52.73;101385.22;679650;28;69247;-66
2022/05/20 01:37:34;;;;;;;453.23;367.33;;;;;;;22.61;52.65;101385.22;681765;28;21511;-65
2022/05/20 01:37:57;;;;;;;451.52;364.83;;;;;;;22.63;52.76;101387.72;681237;28;23459;-66
2022/05/20 01:38:19;;;;;;;460.27;389.48;;;;;;;22.62;52.79;101377.81;680497;28;46235;-66
2022/05/20 01:38:40;;;;;;;464.00;400.60;;;;;;;22.61;52.69;101385.22;682828;28;67482;-66
2022/05/20 01:39:01;;;;;;;463.30;399.05;;;;;;;22.60;52.64;101380.81;683539;28;43925;-66
2022/05/20 01:39:22;;;;;;;464.83;406.02;;;;;;;22.60;52.78;101383.56;684462;28;20866;-66
2022/05/20 01:39:44;;;;;;;467.08;410.23;;;;;;;22.59;52.81;101376.34;683286;28;11799;-66
2022/05/20 01:40:07;;;;;;;464.20;401.98;;;;;;;22.60;52.78;101382.69;683243;28;46390;-66
2022/05/20 01:40:35;;;;;;;464.42;403.88;;;;;;;22.59;52.62;101387.38;681988;28;66747;-65
2022/05/20 01:41:01;;;;;;;457.48;385.17;;;;;;;22.60;52.90;101383.56;677665;29;138053;-65
2022/05/20 01:41:28;;;;;;;452.02;366.90;;;;;;;22.58;52.83;101382.09;676846;28;138153;-66
2022/05/20 01:41:53;;;;;;;476.25;424.17;;;;;;;22.56;52.86;101385.09;676441;28;156841;-65
2022/05/20 01:42:23;;;;;;;463.45;398.35;;;;;;;22.55;52.78;101391.69;678162;28;113672;-66